Weather at Djilor Pout Pout Airport

Public forecast

Using degrees Celsius for public forecast. Weather courtesy of forecast.io.

Closest aviation weather report (METAR) to Djilor Pout Pout Airport

Report is more than 6 hours old.

Closest report is Kaolack Airport, 36.0 nm (66.6 km) E.

2022/11/14 15:00 (retrieved 2 years ago)

GOOK 141500Z 36006KT CAVOK 34/17 Q1011

Closest aviation forecast (TAF) to Djilor Pout Pout Airport

Forecast is more than 12 hours old.

Closest forecast is Blaise Diagne International Airport, 42.3 nm (78.3 km) NW.

2023/02/22 18:00 (retrieved 1 year ago)

TAF GOOY 221700Z 2218/2324 32018KT 8000 NSC TAF GOBD 221700Z 2218/2324 36018KT 8000 NSC